sensor_id;sensor_type;location;lat;lon;timestamp;P1;durP1;ratioP1;P2;durP2;ratioP2
13374;SDS011;6756;51.354;15.754;2023-12-20T00:00:08;4.77;;;3.87;;
13374;SDS011;6756;51.354;15.754;2023-12-20T00:04:09;5.87;;;3.33;;
13374;SDS011;6756;51.354;15.754;2023-12-20T00:08:10;2.77;;;2.50;;
13374;SDS011;6756;51.354;15.754;2023-12-20T00:12:11;2.77;;;2.43;;
13374;SDS011;6756;51.354;15.754;2023-12-20T00:16:12;2.13;;;1.63;;
13374;SDS011;6756;51.354;15.754;2023-12-20T00:20:12;2.10;;;1.50;;
13374;SDS011;6756;51.354;15.754;2023-12-20T00:24:13;2.27;;;1.50;;
13374;SDS011;6756;51.354;15.754;2023-12-20T00:28:15;1.70;;;1.40;;
13374;SDS011;6756;51.354;15.754;2023-12-20T00:32:15;1.67;;;1.50;;
13374;SDS011;6756;51.354;15.754;2023-12-20T00:36:16;1.53;;;1.43;;
13374;SDS011;6756;51.354;15.754;2023-12-20T00:40:17;1.77;;;1.63;;
13374;SDS011;6756;51.354;15.754;2023-12-20T00:44:18;2.00;;;1.60;;
13374;SDS011;6756;51.354;15.754;2023-12-20T00:48:19;2.20;;;1.50;;
13374;SDS011;6756;51.354;15.754;2023-12-20T00:52:20;1.87;;;1.50;;
13374;SDS011;6756;51.354;15.754;2023-12-20T00:56:22;1.57;;;1.30;;
13374;SDS011;6756;51.354;15.754;2023-12-20T01:00:24;1.90;;;1.40;;
13374;SDS011;6756;51.354;15.754;2023-12-20T01:04:24;1.60;;;1.50;;
13374;SDS011;6756;51.354;15.754;2023-12-20T01:08:25;2.03;;;1.70;;
13374;SDS011;6756;51.354;15.754;2023-12-20T01:12:26;1.70;;;1.47;;
13374;SDS011;6756;51.354;15.754;2023-12-20T01:16:26;1.20;;;1.10;;
13374;SDS011;6756;51.354;15.754;2023-12-20T01:20:27;1.60;;;1.23;;
13374;SDS011;6756;51.354;15.754;2023-12-20T01:24:28;2.20;;;1.30;;
13374;SDS011;6756;51.354;15.754;2023-12-20T01:28:29;1.43;;;1.17;;
13374;SDS011;6756;51.354;15.754;2023-12-20T01:32:29;1.83;;;1.10;;
13374;SDS011;6756;51.354;15.754;2023-12-20T01:36:30;1.33;;;1.10;;
13374;SDS011;6756;51.354;15.754;2023-12-20T01:40:33;1.70;;;1.27;;
13374;SDS011;6756;51.354;15.754;2023-12-20T01:44:34;1.23;;;1.13;;
13374;SDS011;6756;51.354;15.754;2023-12-20T01:48:34;1.57;;;1.20;;
13374;SDS011;6756;51.354;15.754;2023-12-20T01:52:36;1.37;;;1.27;;
13374;SDS011;6756;51.354;15.754;2023-12-20T01:56:37;1.63;;;1.07;;
13374;SDS011;6756;51.354;15.754;2023-12-20T02:00:39;1.73;;;1.27;;
13374;SDS011;6756;51.354;15.754;2023-12-20T02:04:41;1.30;;;1.20;;
13374;SDS011;6756;51.354;15.754;2023-12-20T02:08:42;2.00;;;1.00;;
13374;SDS011;6756;51.354;15.754;2023-12-20T02:12:42;1.67;;;1.30;;
13374;SDS011;6756;51.354;15.754;2023-12-20T02:16:43;1.77;;;1.00;;
13374;SDS011;6756;51.354;15.754;2023-12-20T02:20:44;1.10;;;1.00;;
13374;SDS011;6756;51.354;15.754;2023-12-20T02:24:45;1.60;;;1.50;;
13374;SDS011;6756;51.354;15.754;2023-12-20T02:28:45;1.40;;;1.23;;
13374;SDS011;6756;51.354;15.754;2023-12-20T02:32:47;1.40;;;1.20;;
13374;SDS011;6756;51.354;15.754;2023-12-20T02:36:49;1.77;;;1.40;;
13374;SDS011;6756;51.354;15.754;2023-12-20T02:40:53;1.97;;;1.37;;
13374;SDS011;6756;51.354;15.754;2023-12-20T02:44:54;0.97;;;0.97;;
13374;SDS011;6756;51.354;15.754;2023-12-20T02:48:54;1.30;;;1.20;;
13374;SDS011;6756;51.354;15.754;2023-12-20T02:52:55;1.13;;;1.00;;
13374;SDS011;6756;51.354;15.754;2023-12-20T02:56:56;1.40;;;1.17;;
13374;SDS011;6756;51.354;15.754;2023-12-20T03:00:56;1.30;;;1.20;;
13374;SDS011;6756;51.354;15.754;2023-12-20T03:04:57;1.50;;;1.30;;
13374;SDS011;6756;51.354;15.754;2023-12-20T03:09:00;1.10;;;1.00;;
13374;SDS011;6756;51.354;15.754;2023-12-20T03:13:01;1.50;;;1.40;;
13374;SDS011;6756;51.354;15.754;2023-12-20T03:17:02;1.20;;;1.10;;
13374;SDS011;6756;51.354;15.754;2023-12-20T03:21:05;1.60;;;1.40;;
13374;SDS011;6756;51.354;15.754;2023-12-20T03:25:06;1.20;;;1.03;;
13374;SDS011;6756;51.354;15.754;2023-12-20T03:29:07;1.30;;;1.20;;
13374;SDS011;6756;51.354;15.754;2023-12-20T03:33:08;1.40;;;1.30;;
13374;SDS011;6756;51.354;15.754;2023-12-20T03:37:09;1.40;;;1.30;;
13374;SDS011;6756;51.354;15.754;2023-12-20T03:41:10;1.60;;;1.30;;
13374;SDS011;6756;51.354;15.754;2023-12-20T03:45:11;1.60;;;1.50;;
13374;SDS011;6756;51.354;15.754;2023-12-20T03:49:15;1.33;;;1.23;;
13374;SDS011;6756;51.354;15.754;2023-12-20T03:53:15;1.50;;;1.20;;
13374;SDS011;6756;51.354;15.754;2023-12-20T03:57:16;1.30;;;1.20;;
13374;SDS011;6756;51.354;15.754;2023-12-20T04:01:17;1.70;;;1.40;;
13374;SDS011;6756;51.354;15.754;2023-12-20T04:05:18;1.47;;;1.37;;
13374;SDS011;6756;51.354;15.754;2023-12-20T04:09:18;1.37;;;1.27;;
13374;SDS011;6756;51.354;15.754;2023-12-20T04:13:19;4.87;;;1.50;;
13374;SDS011;6756;51.354;15.754;2023-12-20T04:17:20;1.23;;;1.13;;
13374;SDS011;6756;51.354;15.754;2023-12-20T04:21:22;1.47;;;1.37;;
13374;SDS011;6756;51.354;15.754;2023-12-20T04:25:23;1.27;;;1.17;;
13374;SDS011;6756;51.354;15.754;2023-12-20T04:29:24;1.33;;;1.23;;
13374;SDS011;6756;51.354;15.754;2023-12-20T04:33:27;2.40;;;1.30;;
13374;SDS011;6756;51.354;15.754;2023-12-20T04:37:28;1.50;;;1.40;;
13374;SDS011;6756;51.354;15.754;2023-12-20T04:41:28;2.90;;;1.50;;
13374;SDS011;6756;51.354;15.754;2023-12-20T04:45:32;1.93;;;1.40;;
13374;SDS011;6756;51.354;15.754;2023-12-20T04:49:33;1.83;;;1.43;;
13374;SDS011;6756;51.354;15.754;2023-12-20T04:53:33;1.70;;;1.60;;
13374;SDS011;6756;51.354;15.754;2023-12-20T04:57:34;1.40;;;1.30;;
13374;SDS011;6756;51.354;15.754;2023-12-20T05:01:35;3.63;;;1.63;;
13374;SDS011;6756;51.354;15.754;2023-12-20T05:05:36;1.30;;;1.20;;
13374;SDS011;6756;51.354;15.754;2023-12-20T05:09:37;1.50;;;1.40;;
13374;SDS011;6756;51.354;15.754;2023-12-20T05:13:38;1.30;;;1.20;;
13374;SDS011;6756;51.354;15.754;2023-12-20T05:17:38;1.77;;;1.60;;
13374;SDS011;6756;51.354;15.754;2023-12-20T05:21:39;1.37;;;1.27;;
13374;SDS011;6756;51.354;15.754;2023-12-20T05:25:40;2.20;;;2.00;;
13374;SDS011;6756;51.354;15.754;2023-12-20T05:29:41;1.53;;;1.43;;
13374;SDS011;6756;51.354;15.754;2023-12-20T05:33:41;2.00;;;1.70;;
13374;SDS011;6756;51.354;15.754;2023-12-20T05:37:42;2.00;;;1.80;;
13374;SDS011;6756;51.354;15.754;2023-12-20T05:41:43;1.40;;;1.30;;
13374;SDS011;6756;51.354;15.754;2023-12-20T05:45:46;1.70;;;1.60;;
13374;SDS011;6756;51.354;15.754;2023-12-20T05:49:47;1.80;;;1.53;;
13374;SDS011;6756;51.354;15.754;2023-12-20T05:53:48;1.93;;;1.73;;
13374;SDS011;6756;51.354;15.754;2023-12-20T05:57:51;1.80;;;1.70;;
13374;SDS011;6756;51.354;15.754;2023-12-20T06:01:52;2.07;;;1.70;;
13374;SDS011;6756;51.354;15.754;2023-12-20T06:05:53;2.27;;;1.90;;
13374;SDS011;6756;51.354;15.754;2023-12-20T06:09:54;1.63;;;1.50;;
13374;SDS011;6756;51.354;15.754;2023-12-20T06:13:55;3.50;;;1.50;;
13374;SDS011;6756;51.354;15.754;2023-12-20T06:17:56;1.47;;;1.30;;
13374;SDS011;6756;51.354;15.754;2023-12-20T06:21:57;1.23;;;1.13;;
13374;SDS011;6756;51.354;15.754;2023-12-20T06:25:57;1.20;;;1.10;;
13374;SDS011;6756;51.354;15.754;2023-12-20T06:29:58;1.30;;;1.20;;
13374;SDS011;6756;51.354;15.754;2023-12-20T06:33:59;1.20;;;1.10;;
13374;SDS011;6756;51.354;15.754;2023-12-20T06:38:00;1.27;;;1.17;;
13374;SDS011;6756;51.354;15.754;2023-12-20T06:42:01;1.23;;;1.13;;
13374;SDS011;6756;51.354;15.754;2023-12-20T06:46:02;1.40;;;1.30;;
13374;SDS011;6756;51.354;15.754;2023-12-20T06:50:03;1.20;;;1.10;;
13374;SDS011;6756;51.354;15.754;2023-12-20T06:54:04;1.50;;;1.20;;
13374;SDS011;6756;51.354;15.754;2023-12-20T06:58:05;1.20;;;1.10;;
13374;SDS011;6756;51.354;15.754;2023-12-20T07:02:07;1.10;;;1.00;;
13374;SDS011;6756;51.354;15.754;2023-12-20T07:06:09;1.10;;;1.00;;
13374;SDS011;6756;51.354;15.754;2023-12-20T07:10:09;1.10;;;1.00;;
13374;SDS011;6756;51.354;15.754;2023-12-20T07:14:10;0.93;;;0.87;;
13374;SDS011;6756;51.354;15.754;2023-12-20T07:18:11;1.13;;;0.80;;
13374;SDS011;6756;51.354;15.754;2023-12-20T07:22:12;0.93;;;0.87;;
13374;SDS011;6756;51.354;15.754;2023-12-20T07:26:13;1.07;;;0.80;;
13374;SDS011;6756;51.354;15.754;2023-12-20T07:30:14;0.63;;;0.60;;
13374;SDS011;6756;51.354;15.754;2023-12-20T07:34:18;0.73;;;0.70;;
13374;SDS011;6756;51.354;15.754;2023-12-20T07:38:19;0.70;;;0.60;;
13374;SDS011;6756;51.354;15.754;2023-12-20T07:42:19;0.90;;;0.70;;
13374;SDS011;6756;51.354;15.754;2023-12-20T07:46:22;1.43;;;0.80;;
13374;SDS011;6756;51.354;15.754;2023-12-20T07:50:23;0.87;;;0.80;;
13374;SDS011;6756;51.354;15.754;2023-12-20T07:54:24;1.97;;;0.67;;
13374;SDS011;6756;51.354;15.754;2023-12-20T07:58:25;1.03;;;0.57;;
13374;SDS011;6756;51.354;15.754;2023-12-20T08:02:25;0.70;;;0.70;;
13374;SDS011;6756;51.354;15.754;2023-12-20T08:06:26;0.80;;;0.63;;
13374;SDS011;6756;51.354;15.754;2023-12-20T08:10:27;1.57;;;0.73;;
13374;SDS011;6756;51.354;15.754;2023-12-20T08:14:30;0.80;;;0.50;;
13374;SDS011;6756;51.354;15.754;2023-12-20T08:18:31;2.27;;;0.40;;
13374;SDS011;6756;51.354;15.754;2023-12-20T08:22:32;3.30;;;0.60;;
13374;SDS011;6756;51.354;15.754;2023-12-20T08:26:33;0.50;;;0.50;;
13374;SDS011;6756;51.354;15.754;2023-12-20T08:30:33;1.93;;;0.60;;
13374;SDS011;6756;51.354;15.754;2023-12-20T08:34:34;1.50;;;1.00;;
13374;SDS011;6756;51.354;15.754;2023-12-20T08:38:35;1.07;;;0.70;;
13374;SDS011;6756;51.354;15.754;2023-12-20T08:42:36;2.00;;;0.80;;
13374;SDS011;6756;51.354;15.754;2023-12-20T08:46:37;3.33;;;0.80;;
13374;SDS011;6756;51.354;15.754;2023-12-20T08:50:38;2.33;;;0.90;;
13374;SDS011;6756;51.354;15.754;2023-12-20T08:54:39;1.83;;;0.93;;
13374;SDS011;6756;51.354;15.754;2023-12-20T08:58:39;2.63;;;1.10;;
13374;SDS011;6756;51.354;15.754;2023-12-20T09:02:41;2.20;;;1.13;;
13374;SDS011;6756;51.354;15.754;2023-12-20T09:06:41;1.73;;;1.10;;
13374;SDS011;6756;51.354;15.754;2023-12-20T09:10:43;3.47;;;1.13;;
13374;SDS011;6756;51.354;15.754;2023-12-20T09:14:45;4.93;;;1.23;;
13374;SDS011;6756;51.354;15.754;2023-12-20T09:18:46;5.00;;;1.37;;
13374;SDS011;6756;51.354;15.754;2023-12-20T09:22:49;1.53;;;1.17;;
13374;SDS011;6756;51.354;15.754;2023-12-20T09:26:50;3.37;;;1.00;;
13374;SDS011;6756;51.354;15.754;2023-12-20T09:30:51;1.77;;;1.07;;
13374;SDS011;6756;51.354;15.754;2023-12-20T09:34:52;4.73;;;1.00;;
13374;SDS011;6756;51.354;15.754;2023-12-20T09:38:52;2.60;;;0.90;;
13374;SDS011;6756;51.354;15.754;2023-12-20T09:46:55;3.13;;;1.20;;
13374;SDS011;6756;51.354;15.754;2023-12-20T09:50:56;3.47;;;1.43;;
13374;SDS011;6756;51.354;15.754;2023-12-20T09:55:00;5.23;;;1.27;;
13374;SDS011;6756;51.354;15.754;2023-12-20T09:59:05;3.40;;;2.30;;
13374;SDS011;6756;51.354;15.754;2023-12-20T10:03:09;6.53;;;3.03;;
13374;SDS011;6756;51.354;15.754;2023-12-20T10:07:15;4.03;;;2.37;;
13374;SDS011;6756;51.354;15.754;2023-12-20T10:11:18;2.17;;;1.40;;
13374;SDS011;6756;51.354;15.754;2023-12-20T10:15:19;2.53;;;1.23;;
13374;SDS011;6756;51.354;15.754;2023-12-20T10:19:21;3.33;;;1.43;;
13374;SDS011;6756;51.354;15.754;2023-12-20T10:23:22;4.47;;;1.60;;
13374;SDS011;6756;51.354;15.754;2023-12-20T10:27:23;5.30;;;1.40;;
13374;SDS011;6756;51.354;15.754;2023-12-20T10:35:34;2.53;;;1.30;;
13374;SDS011;6756;51.354;15.754;2023-12-20T10:39:36;3.17;;;1.37;;
13374;SDS011;6756;51.354;15.754;2023-12-20T10:43:37;3.27;;;1.53;;
13374;SDS011;6756;51.354;15.754;2023-12-20T10:47:47;6.60;;;1.53;;
13374;SDS011;6756;51.354;15.754;2023-12-20T10:51:49;3.83;;;1.73;;
13374;SDS011;6756;51.354;15.754;2023-12-20T10:55:52;4.27;;;1.20;;
13374;SDS011;6756;51.354;15.754;2023-12-20T10:59:56;3.57;;;1.10;;
13374;SDS011;6756;51.354;15.754;2023-12-20T11:04:05;2.47;;;1.33;;
13374;SDS011;6756;51.354;15.754;2023-12-20T11:08:15;1.53;;;1.20;;
13374;SDS011;6756;51.354;15.754;2023-12-20T11:12:28;3.73;;;1.33;;
13374;SDS011;6756;51.354;15.754;2023-12-20T11:16:37;4.77;;;1.53;;
13374;SDS011;6756;51.354;15.754;2023-12-20T11:20:39;1.93;;;1.40;;
13374;SDS011;6756;51.354;15.754;2023-12-20T11:24:44;3.50;;;1.30;;
13374;SDS011;6756;51.354;15.754;2023-12-20T11:28:46;2.33;;;1.00;;
13374;SDS011;6756;51.354;15.754;2023-12-20T11:32:47;1.70;;;0.90;;
13374;SDS011;6756;51.354;15.754;2023-12-20T11:40:59;4.13;;;1.40;;
13374;SDS011;6756;51.354;15.754;2023-12-20T11:45:03;3.13;;;1.53;;
13374;SDS011;6756;51.354;15.754;2023-12-20T11:49:04;3.00;;;1.13;;
13374;SDS011;6756;51.354;15.754;2023-12-20T11:53:05;3.23;;;2.10;;
13374;SDS011;6756;51.354;15.754;2023-12-20T11:57:06;3.20;;;1.93;;
13374;SDS011;6756;51.354;15.754;2023-12-20T12:01:07;6.53;;;3.10;;
13374;SDS011;6756;51.354;15.754;2023-12-20T12:05:08;3.30;;;2.20;;
13374;SDS011;6756;51.354;15.754;2023-12-20T12:09:09;5.07;;;1.50;;
13374;SDS011;6756;51.354;15.754;2023-12-20T12:13:10;6.50;;;1.73;;
13374;SDS011;6756;51.354;15.754;2023-12-20T12:17:14;3.97;;;1.70;;
13374;SDS011;6756;51.354;15.754;2023-12-20T12:21:19;2.77;;;1.60;;
13374;SDS011;6756;51.354;15.754;2023-12-20T12:25:20;2.00;;;1.20;;
13374;SDS011;6756;51.354;15.754;2023-12-20T12:29:22;7.63;;;2.57;;
13374;SDS011;6756;51.354;15.754;2023-12-20T12:33:25;4.30;;;1.10;;
13374;SDS011;6756;51.354;15.754;2023-12-20T12:37:26;7.77;;;4.80;;
13374;SDS011;6756;51.354;15.754;2023-12-20T12:41:28;6.27;;;4.00;;
13374;SDS011;6756;51.354;15.754;2023-12-20T12:45:32;7.60;;;4.50;;
13374;SDS011;6756;51.354;15.754;2023-12-20T12:49:33;6.03;;;2.40;;
13374;SDS011;6756;51.354;15.754;2023-12-20T12:53:34;4.40;;;1.80;;
13374;SDS011;6756;51.354;15.754;2023-12-20T12:57:35;8.80;;;1.50;;
13374;SDS011;6756;51.354;15.754;2023-12-20T13:01:36;2.73;;;1.40;;
13374;SDS011;6756;51.354;15.754;2023-12-20T13:05:37;3.97;;;1.57;;
13374;SDS011;6756;51.354;15.754;2023-12-20T13:09:38;4.83;;;1.67;;
13374;SDS011;6756;51.354;15.754;2023-12-20T13:13:39;2.33;;;1.53;;
13374;SDS011;6756;51.354;15.754;2023-12-20T13:17:40;5.00;;;1.20;;
13374;SDS011;6756;51.354;15.754;2023-12-20T13:21:41;4.50;;;1.60;;
13374;SDS011;6756;51.354;15.754;2023-12-20T13:25:41;4.57;;;1.67;;
13374;SDS011;6756;51.354;15.754;2023-12-20T13:29:48;3.20;;;1.30;;
13374;SDS011;6756;51.354;15.754;2023-12-20T13:33:52;3.43;;;1.40;;
13374;SDS011;6756;51.354;15.754;2023-12-20T13:37:53;4.00;;;1.33;;
13374;SDS011;6756;51.354;15.754;2023-12-20T13:41:54;3.00;;;1.10;;
13374;SDS011;6756;51.354;15.754;2023-12-20T13:45:55;2.93;;;1.10;;
13374;SDS011;6756;51.354;15.754;2023-12-20T13:50:02;3.20;;;1.40;;
13374;SDS011;6756;51.354;15.754;2023-12-20T13:54:04;6.77;;;1.50;;
13374;SDS011;6756;51.354;15.754;2023-12-20T13:58:04;2.43;;;1.17;;
13374;SDS011;6756;51.354;15.754;2023-12-20T14:02:05;4.73;;;1.50;;
13374;SDS011;6756;51.354;15.754;2023-12-20T14:06:06;2.27;;;1.30;;
13374;SDS011;6756;51.354;15.754;2023-12-20T14:10:07;5.40;;;1.63;;
13374;SDS011;6756;51.354;15.754;2023-12-20T14:14:08;2.70;;;1.53;;
13374;SDS011;6756;51.354;15.754;2023-12-20T14:18:09;2.27;;;1.33;;
13374;SDS011;6756;51.354;15.754;2023-12-20T14:22:12;2.53;;;1.37;;
13374;SDS011;6756;51.354;15.754;2023-12-20T14:26:16;2.83;;;1.03;;
13374;SDS011;6756;51.354;15.754;2023-12-20T14:30:17;4.63;;;1.37;;
13374;SDS011;6756;51.354;15.754;2023-12-20T14:34:21;2.00;;;1.40;;
13374;SDS011;6756;51.354;15.754;2023-12-20T14:38:24;5.97;;;1.40;;
13374;SDS011;6756;51.354;15.754;2023-12-20T14:42:25;6.90;;;3.30;;
13374;SDS011;6756;51.354;15.754;2023-12-20T14:46:27;6.17;;;2.73;;
13374;SDS011;6756;51.354;15.754;2023-12-20T14:50:28;4.50;;;1.70;;
13374;SDS011;6756;51.354;15.754;2023-12-20T14:54:29;3.67;;;1.63;;
13374;SDS011;6756;51.354;15.754;2023-12-20T14:58:30;2.43;;;1.60;;
13374;SDS011;6756;51.354;15.754;2023-12-20T15:02:32;4.03;;;2.00;;
13374;SDS011;6756;51.354;15.754;2023-12-20T15:06:33;4.93;;;2.00;;
13374;SDS011;6756;51.354;15.754;2023-12-20T15:10:42;4.37;;;2.30;;
13374;SDS011;6756;51.354;15.754;2023-12-20T15:14:45;6.27;;;2.23;;
13374;SDS011;6756;51.354;15.754;2023-12-20T15:18:49;5.63;;;2.60;;
13374;SDS011;6756;51.354;15.754;2023-12-20T15:22:50;4.63;;;2.27;;
13374;SDS011;6756;51.354;15.754;2023-12-20T15:26:51;5.50;;;2.50;;
13374;SDS011;6756;51.354;15.754;2023-12-20T15:30:52;5.33;;;2.00;;
13374;SDS011;6756;51.354;15.754;2023-12-20T15:34:53;3.87;;;2.00;;
13374;SDS011;6756;51.354;15.754;2023-12-20T15:38:54;3.77;;;2.07;;
13374;SDS011;6756;51.354;15.754;2023-12-20T15:42:55;5.83;;;2.70;;
13374;SDS011;6756;51.354;15.754;2023-12-20T15:46:55;4.40;;;2.20;;
13374;SDS011;6756;51.354;15.754;2023-12-20T15:50:56;3.13;;;1.47;;
13374;SDS011;6756;51.354;15.754;2023-12-20T15:54:57;3.07;;;1.73;;
13374;SDS011;6756;51.354;15.754;2023-12-20T15:58:58;3.43;;;1.53;;
13374;SDS011;6756;51.354;15.754;2023-12-20T16:03:00;4.20;;;1.60;;
13374;SDS011;6756;51.354;15.754;2023-12-20T16:07:03;4.37;;;1.37;;
13374;SDS011;6756;51.354;15.754;2023-12-20T16:11:03;3.03;;;1.30;;
13374;SDS011;6756;51.354;15.754;2023-12-20T16:15:04;2.13;;;1.40;;
13374;SDS011;6756;51.354;15.754;2023-12-20T16:19:06;3.27;;;1.30;;
13374;SDS011;6756;51.354;15.754;2023-12-20T16:23:09;1.50;;;1.13;;
13374;SDS011;6756;51.354;15.754;2023-12-20T16:27:11;3.00;;;1.40;;
13374;SDS011;6756;51.354;15.754;2023-12-20T16:31:12;4.73;;;1.60;;
13374;SDS011;6756;51.354;15.754;2023-12-20T16:35:13;1.50;;;1.10;;
13374;SDS011;6756;51.354;15.754;2023-12-20T16:39:14;2.93;;;1.40;;
13374;SDS011;6756;51.354;15.754;2023-12-20T16:43:15;2.27;;;1.07;;
13374;SDS011;6756;51.354;15.754;2023-12-20T16:47:15;1.87;;;1.07;;
13374;SDS011;6756;51.354;15.754;2023-12-20T16:51:16;2.17;;;1.40;;
13374;SDS011;6756;51.354;15.754;2023-12-20T16:55:17;3.53;;;1.23;;
13374;SDS011;6756;51.354;15.754;2023-12-20T16:59:18;2.20;;;1.20;;
13374;SDS011;6756;51.354;15.754;2023-12-20T17:03:22;1.83;;;1.20;;
13374;SDS011;6756;51.354;15.754;2023-12-20T17:07:25;4.30;;;1.13;;
13374;SDS011;6756;51.354;15.754;2023-12-20T17:11:27;1.80;;;0.93;;
13374;SDS011;6756;51.354;15.754;2023-12-20T17:15:28;1.60;;;1.13;;
13374;SDS011;6756;51.354;15.754;2023-12-20T17:19:29;3.30;;;1.30;;
13374;SDS011;6756;51.354;15.754;2023-12-20T17:23:33;1.10;;;0.87;;
13374;SDS011;6756;51.354;15.754;2023-12-20T17:27:34;2.00;;;0.97;;
13374;SDS011;6756;51.354;15.754;2023-12-20T17:31:35;1.37;;;1.17;;
13374;SDS011;6756;51.354;15.754;2023-12-20T17:35:37;1.87;;;0.97;;
13374;SDS011;6756;51.354;15.754;2023-12-20T17:39:37;6.10;;;0.90;;
13374;SDS011;6756;51.354;15.754;2023-12-20T17:43:39;2.03;;;1.30;;
13374;SDS011;6756;51.354;15.754;2023-12-20T17:47:40;2.63;;;0.80;;
13374;SDS011;6756;51.354;15.754;2023-12-20T17:51:41;2.47;;;0.70;;
13374;SDS011;6756;51.354;15.754;2023-12-20T17:55:45;2.13;;;0.80;;
13374;SDS011;6756;51.354;15.754;2023-12-20T18:00:20;1.90;;;0.80;;
13374;SDS011;6756;51.354;15.754;2023-12-20T18:04:21;2.00;;;1.07;;
13374;SDS011;6756;51.354;15.754;2023-12-20T18:08:23;2.13;;;0.83;;
13374;SDS011;6756;51.354;15.754;2023-12-20T18:12:25;3.10;;;0.70;;
13374;SDS011;6756;51.354;15.754;2023-12-20T18:16:25;1.77;;;1.00;;
13374;SDS011;6756;51.354;15.754;2023-12-20T18:20:29;2.20;;;1.17;;
13374;SDS011;6756;51.354;15.754;2023-12-20T18:24:29;2.07;;;1.13;;
13374;SDS011;6756;51.354;15.754;2023-12-20T18:28:30;3.20;;;1.60;;
13374;SDS011;6756;51.354;15.754;2023-12-20T18:32:32;1.70;;;0.83;;
13374;SDS011;6756;51.354;15.754;2023-12-20T18:36:35;1.40;;;0.90;;
13374;SDS011;6756;51.354;15.754;2023-12-20T18:40:36;1.30;;;1.10;;
13374;SDS011;6756;51.354;15.754;2023-12-20T18:44:37;2.57;;;1.13;;
13374;SDS011;6756;51.354;15.754;2023-12-20T18:48:39;2.03;;;1.20;;
13374;SDS011;6756;51.354;15.754;2023-12-20T18:52:41;2.07;;;0.80;;
13374;SDS011;6756;51.354;15.754;2023-12-20T18:56:42;2.17;;;1.10;;
13374;SDS011;6756;51.354;15.754;2023-12-20T19:00:44;2.03;;;1.07;;
13374;SDS011;6756;51.354;15.754;2023-12-20T19:04:45;4.17;;;1.10;;
13374;SDS011;6756;51.354;15.754;2023-12-20T19:08:46;2.70;;;1.00;;
13374;SDS011;6756;51.354;15.754;2023-12-20T19:12:50;9.90;;;3.83;;
13374;SDS011;6756;51.354;15.754;2023-12-20T19:16:51;3.63;;;1.30;;
13374;SDS011;6756;51.354;15.754;2023-12-20T19:20:53;3.57;;;0.90;;
13374;SDS011;6756;51.354;15.754;2023-12-20T19:24:54;1.83;;;0.83;;
13374;SDS011;6756;51.354;15.754;2023-12-20T19:28:55;2.43;;;0.93;;
13374;SDS011;6756;51.354;15.754;2023-12-20T19:32:56;3.53;;;0.97;;
13374;SDS011;6756;51.354;15.754;2023-12-20T19:36:57;4.50;;;0.93;;
13374;SDS011;6756;51.354;15.754;2023-12-20T19:40:58;1.13;;;0.67;;
13374;SDS011;6756;51.354;15.754;2023-12-20T19:44:59;2.53;;;1.50;;
13374;SDS011;6756;51.354;15.754;2023-12-20T19:49:00;1.57;;;1.00;;
13374;SDS011;6756;51.354;15.754;2023-12-20T19:53:04;3.10;;;1.13;;
13374;SDS011;6756;51.354;15.754;2023-12-20T19:57:07;2.63;;;0.90;;
13374;SDS011;6756;51.354;15.754;2023-12-20T20:01:08;3.90;;;1.47;;
13374;SDS011;6756;51.354;15.754;2023-12-20T20:05:09;1.10;;;1.00;;
13374;SDS011;6756;51.354;15.754;2023-12-20T20:09:10;2.07;;;1.10;;
13374;SDS011;6756;51.354;15.754;2023-12-20T20:13:11;1.97;;;1.17;;
13374;SDS011;6756;51.354;15.754;2023-12-20T20:17:14;2.33;;;1.40;;
13374;SDS011;6756;51.354;15.754;2023-12-20T20:21:15;4.83;;;1.37;;
13374;SDS011;6756;51.354;15.754;2023-12-20T20:25:15;6.37;;;1.60;;
13374;SDS011;6756;51.354;15.754;2023-12-20T20:29:16;1.63;;;1.00;;
13374;SDS011;6756;51.354;15.754;2023-12-20T20:33:18;3.67;;;1.63;;
13374;SDS011;6756;51.354;15.754;2023-12-20T20:37:18;3.33;;;1.50;;
13374;SDS011;6756;51.354;15.754;2023-12-20T20:41:19;3.03;;;1.30;;
13374;SDS011;6756;51.354;15.754;2023-12-20T20:45:21;2.63;;;1.40;;
13374;SDS011;6756;51.354;15.754;2023-12-20T20:49:23;3.50;;;1.60;;
13374;SDS011;6756;51.354;15.754;2023-12-20T20:53:24;5.10;;;1.50;;
13374;SDS011;6756;51.354;15.754;2023-12-20T20:57:25;4.40;;;1.60;;
13374;SDS011;6756;51.354;15.754;2023-12-20T21:01:26;2.20;;;1.50;;
13374;SDS011;6756;51.354;15.754;2023-12-20T21:05:27;3.87;;;1.70;;
13374;SDS011;6756;51.354;15.754;2023-12-20T21:09:28;4.33;;;1.20;;
13374;SDS011;6756;51.354;15.754;2023-12-20T21:13:28;3.97;;;1.77;;
13374;SDS011;6756;51.354;15.754;2023-12-20T21:17:29;3.83;;;1.20;;
13374;SDS011;6756;51.354;15.754;2023-12-20T21:21:30;3.50;;;1.27;;
13374;SDS011;6756;51.354;15.754;2023-12-20T21:25:32;4.53;;;0.90;;
13374;SDS011;6756;51.354;15.754;2023-12-20T21:29:33;2.67;;;1.17;;
13374;SDS011;6756;51.354;15.754;2023-12-20T21:33:34;3.17;;;0.60;;
13374;SDS011;6756;51.354;15.754;2023-12-20T21:37:34;2.00;;;0.60;;
13374;SDS011;6756;51.354;15.754;2023-12-20T21:41:35;3.00;;;1.10;;
13374;SDS011;6756;51.354;15.754;2023-12-20T21:45:36;1.23;;;0.90;;
13374;SDS011;6756;51.354;15.754;2023-12-20T21:49:37;3.90;;;0.80;;
13374;SDS011;6756;51.354;15.754;2023-12-20T21:53:38;1.23;;;0.80;;
13374;SDS011;6756;51.354;15.754;2023-12-20T21:57:40;2.40;;;1.10;;
13374;SDS011;6756;51.354;15.754;2023-12-20T22:01:41;2.30;;;1.10;;
13374;SDS011;6756;51.354;15.754;2023-12-20T22:05:42;1.77;;;0.80;;
13374;SDS011;6756;51.354;15.754;2023-12-20T22:09:44;2.73;;;0.80;;
13374;SDS011;6756;51.354;15.754;2023-12-20T22:13:44;1.87;;;0.87;;
13374;SDS011;6756;51.354;15.754;2023-12-20T22:17:45;1.67;;;0.77;;
13374;SDS011;6756;51.354;15.754;2023-12-20T22:21:46;1.50;;;0.63;;
13374;SDS011;6756;51.354;15.754;2023-12-20T22:25:47;0.87;;;0.50;;
13374;SDS011;6756;51.354;15.754;2023-12-20T22:29:48;1.87;;;0.70;;
13374;SDS011;6756;51.354;15.754;2023-12-20T22:33:49;1.53;;;0.70;;
13374;SDS011;6756;51.354;15.754;2023-12-20T22:37:51;0.80;;;0.60;;
13374;SDS011;6756;51.354;15.754;2023-12-20T22:41:53;1.77;;;0.50;;
13374;SDS011;6756;51.354;15.754;2023-12-20T22:45:57;0.70;;;0.60;;
13374;SDS011;6756;51.354;15.754;2023-12-20T22:49:58;0.87;;;0.60;;
13374;SDS011;6756;51.354;15.754;2023-12-20T22:54:00;0.60;;;0.60;;
13374;SDS011;6756;51.354;15.754;2023-12-20T22:58:01;0.83;;;0.50;;
13374;SDS011;6756;51.354;15.754;2023-12-20T23:02:02;0.47;;;0.40;;
13374;SDS011;6756;51.354;15.754;2023-12-20T23:06:03;2.03;;;0.60;;
13374;SDS011;6756;51.354;15.754;2023-12-20T23:10:04;0.87;;;0.60;;
13374;SDS011;6756;51.354;15.754;2023-12-20T23:14:05;0.60;;;0.60;;
13374;SDS011;6756;51.354;15.754;2023-12-20T23:18:06;1.80;;;0.80;;
13374;SDS011;6756;51.354;15.754;2023-12-20T23:22:10;1.10;;;0.47;;
13374;SDS011;6756;51.354;15.754;2023-12-20T23:26:11;1.00;;;0.80;;
13374;SDS011;6756;51.354;15.754;2023-12-20T23:30:11;2.47;;;1.20;;
13374;SDS011;6756;51.354;15.754;2023-12-20T23:34:13;1.50;;;1.10;;
13374;SDS011;6756;51.354;15.754;2023-12-20T23:38:15;2.70;;;1.33;;
13374;SDS011;6756;51.354;15.754;2023-12-20T23:42:16;1.97;;;1.37;;
13374;SDS011;6756;51.354;15.754;2023-12-20T23:46:18;4.57;;;1.70;;
13374;SDS011;6756;51.354;15.754;2023-12-20T23:50:19;2.20;;;1.90;;
13374;SDS011;6756;51.354;15.754;2023-12-20T23:54:21;3.50;;;2.70;;
13374;SDS011;6756;51.354;15.754;2023-12-20T23:58:22;4.43;;;3.37;;
